地図

経路データ

SID SEASON NUMBER BASIN SUBBASIN NAME ISO_TIME NATURE LAT LON WMO_WIND WMO_PRES WMO_AGENCY TRACK_TYPE DIST2LAND LANDFALL IFLAG USA_AGENCY USA_ATCF_ID USA_LAT USA_LON USA_RECORD USA_STATUS USA_WIND USA_PRES USA_SSHS USA_R34_NE USA_R34_SE USA_R34_SW USA_R34_NW USA_R50_NE USA_R50_SE USA_R50_SW USA_R50_NW USA_R64_NE USA_R64_SE USA_R64_SW USA_R64_NW USA_POCI USA_ROCI USA_RMW USA_EYE TOKYO_LAT TOKYO_LON TOKYO_GRADE TOKYO_WIND TOKYO_PRES TOKYO_R50_DIR TOKYO_R50_LONG TOKYO_R50_SHORT TOKYO_R30_DIR TOKYO_R30_LONG TOKYO_R30_SHORT TOKYO_LAND CMA_LAT CMA_LON CMA_CAT CMA_WIND CMA_PRES HKO_LAT HKO_LON HKO_CAT HKO_WIND HKO_PRES NEWDELHI_LAT NEWDELHI_LON NEWDELHI_GRADE NEWDELHI_WIND NEWDELHI_PRES NEWDELHI_CI NEWDELHI_DP NEWDELHI_POCI REUNION_LAT REUNION_LON REUNION_TYPE REUNION_WIND REUNION_PRES REUNION_TNUM REUNION_CI REUNION_RMW REUNION_R34_NE REUNION_R34_SE REUNION_R34_SW REUNION_R34_NW REUNION_R50_NE REUNION_R50_SE REUNION_R50_SW REUNION_R50_NW REUNION_R64_NE REUNION_R64_SE REUNION_R64_SW REUNION_R64_NW BOM_LAT BOM_LON BOM_TYPE BOM_WIND BOM_PRES BOM_TNUM BOM_CI BOM_RMW BOM_R34_NE BOM_R34_SE BOM_R34_SW BOM_R34_NW BOM_R50_NE BOM_R50_SE BOM_R50_SW BOM_R50_NW BOM_R64_NE BOM_R64_SE BOM_R64_SW BOM_R64_NW BOM_ROCI BOM_POCI BOM_EYE BOM_POS_METHOD BOM_PRES_METHOD NADI_LAT NADI_LON NADI_CAT NADI_WIND NADI_PRES WELLINGTON_LAT WELLINGTON_LON WELLINGTON_WIND WELLINGTON_PRES DS824_LAT DS824_LON DS824_STAGE DS824_WIND DS824_PRES TD9636_LAT TD9636_LON TD9636_STAGE TD9636_WIND TD9636_PRES TD9635_LAT TD9635_LON TD9635_WIND TD9635_PRES TD9635_ROCI NEUMANN_LAT NEUMANN_LON NEUMANN_CLASS NEUMANN_WIND NEUMANN_PRES MLC_LAT MLC_LON MLC_CLASS MLC_WIND MLC_PRES USA_GUST BOM_GUST BOM_GUST_PER REUNION_GUST REUNION_GUST_PER USA_SEAHGT USA_SEARAD_NE USA_SEARAD_SE USA_SEARAD_SW USA_SEARAD_NW STORM_SPEED STORM_DIR
1925190N13143 1925 29 WP MM NOT_NAMED 1925-07-09 10:00:00 NR 13.0000 142.500 main 1703 1703 __________O___ -1 13.0000 142.500 7 2 317
1925190N13143 1925 29 WP MM NOT_NAMED 1925-07-09 12:00:00 NR 13.0574 142.448 main 1710 1708 __________P___ -1 13.0574 142.448 7 3 312
1925190N13143 1925 29 WP MM NOT_NAMED 1925-07-09 15:00:00 NR 13.1470 142.333 main 1708 1711 __________P___ -1 13.1470 142.333 7 4 301
1925190N13143 1925 29 WP MM NOT_NAMED 1925-07-09 18:00:00 NR 13.2456 142.124 main 1711 1708 __________P___ -1 13.2456 142.124 7 6 291
1925190N13143 1925 29 WP MM NOT_NAMED 1925-07-09 21:00:00 NR 13.3584 141.764 main 1718 1710 __________P___ -1 13.3584 141.764 7 8 287
1925190N13143 1925 29 WP MM NOT_NAMED 1925-07-09 22:00:00 NR 13.4000 141.600 main 1710 1697 __________O___ -1 13.4000 141.600 2 11 283
1925190N13143 1925 29 WP MM NOT_NAMED 1925-07-10 00:00:00 NR 13.4895 141.201 main 1697 1624 __________P___ -1 13.4895 141.201 2 14 282
1925190N13143 1925 29 WP MM NOT_NAMED 1925-07-10 03:00:00 NR 13.6358 140.464 main 1624 1531 __________P___ -1 13.6358 140.464 2 16 281
1925190N13143 1925 29 WP MM NOT_NAMED 1925-07-10 06:00:00 NR 13.7906 139.629 main 1531 1448 __________P___ -1 13.7906 139.629 2 17 281
1925190N13143 1925 29 WP MM NOT_NAMED 1925-07-10 09:00:00 NR 13.9479 138.775 main 1448 1419 __________P___ -1 13.9479 138.775 2 17 281
1925190N13143 1925 29 WP MM NOT_NAMED 1925-07-10 10:00:00 NR 14.0000 138.500 main 1419 1369 __________O___ -1 14.0000 138.500 2 15 282
1925190N13143 1925 29 WP MM NOT_NAMED 1925-07-10 12:00:00 NR 14.0964 138.029 main 1369 1297 __________P___ -1 14.0964 138.029 2 14 282
1925190N13143 1925 29 WP MM NOT_NAMED 1925-07-10 15:00:00 NR 14.2415 137.342 main 1297 1237 __________P___ -1 14.2415 137.342 2 14 282
1925190N13143 1925 29 WP MM NOT_NAMED 1925-07-10 18:00:00 NR 14.3904 136.656 main 1237 1154 __________P___ -1 14.3904 136.656 2 14 283
1925190N13143 1925 29 WP MM NOT_NAMED 1925-07-10 21:00:00 NR 14.5461 135.946 main 1154 1136 __________P___ -1 14.5461 135.946 2 14 283
1925190N13143 1925 29 WP MM NOT_NAMED 1925-07-10 22:00:00 NR 14.6000 135.700 main 1136 1086 __________O___ -1 14.6000 135.700 2 16 283
1925190N13143 1925 29 WP MM NOT_NAMED 1925-07-11 00:00:00 NR 14.7190 135.163 main 1086 998 __________P___ -1 14.7190 135.163 2 16 283
1925190N13143 1925 29 WP MM NOT_NAMED 1925-07-11 03:00:00 NR 14.9040 134.326 main 998 923 __________P___ -1 14.9040 134.326 2 17 283
1925190N13143 1925 29 WP MM NOT_NAMED 1925-07-11 06:00:00 NR 15.0854 133.480 main 923 847 __________P___ -1 15.0854 133.480 2 16 282
1925190N13143 1925 29 WP MM NOT_NAMED 1925-07-11 09:00:00 NR 15.2506 132.661 main 851 822 __________P___ -1 15.2506 132.661 2 16 282
1925190N13143 1925 29 WP MM NOT_NAMED 1925-07-11 10:00:00 NR 15.3000 132.400 main 822 778 __________O___ -1 15.3000 132.400 2 15 280
1925190N13143 1925 29 WP MM NOT_NAMED 1925-07-11 12:00:00 NR 15.3858 131.900 main 778 717 __________P___ -1 15.3858 131.900 2 14 280
1925190N13143 1925 29 WP MM NOT_NAMED 1925-07-11 15:00:00 NR 15.4962 131.187 main 717 660 __________P___ -1 15.4962 131.187 2 13 279
1925190N13143 1925 29 WP MM NOT_NAMED 1925-07-11 18:00:00 NR 15.5901 130.520 main 660 615 __________P___ -1 15.5901 130.520 2 13 278
1925190N13143 1925 29 WP MM NOT_NAMED 1925-07-11 21:00:00 NR 15.6735 129.897 main 615 599 __________P___ -1 15.6735 129.897 2 12 278
1925190N13143 1925 29 WP MM NOT_NAMED 1925-07-11 22:00:00 NR 15.7000 129.700 main 599 564 __________O___ -1 15.7000 129.700 3 11 278
1925190N13143 1925 29 WP MM NOT_NAMED 1925-07-12 00:00:00 NR 15.7525 129.310 main 568 518 __________P___ -1 15.7525 129.310 3 11 278
1925190N13143 1925 29 WP MM NOT_NAMED 1925-07-12 03:00:00 NR 15.8253 128.764 main 518 475 __________P___ -1 15.8253 128.764 3 10 278
1925190N13143 1925 29 WP MM NOT_NAMED 1925-07-12 06:00:00 NR 15.8967 128.251 main 475 434 __________P___ -1 15.8967 128.251 3 10 279
1925190N13143 1925 29 WP MM NOT_NAMED 1925-07-12 09:00:00 NR 15.9726 127.761 main 434 416 __________P___ -1 15.9726 127.761 3 10 279
1925190N13143 1925 29 WP MM NOT_NAMED 1925-07-12 10:00:00 NR 16.0000 127.600 main 416 390 __________O___ -1 16.0000 127.600 4 9 280
1925190N13143 1925 29 WP MM NOT_NAMED 1925-07-12 12:00:00 NR 16.0552 127.282 main 397 356 __________P___ -1 16.0552 127.282 4 9 281
1925190N13143 1925 29 WP MM NOT_NAMED 1925-07-12 15:00:00 NR 16.1445 126.818 main 356 333 __________P___ -1 16.1445 126.818 4 9 282
1925190N13143 1925 29 WP MM NOT_NAMED 1925-07-12 18:00:00 NR 16.2445 126.354 main 333 309 __________P___ -1 16.2445 126.354 4 9 283
1925190N13143 1925 29 WP MM NOT_NAMED 1925-07-12 21:00:00 NR 16.3584 125.869 main 318 307 __________P___ -1 16.3584 125.869 4 10 284
1925190N13143 1925 29 WP MM NOT_NAMED 1925-07-12 22:00:00 NR 16.4000 125.700 main 307 297 __________O___ -1 16.4000 125.700 4 10 283
1925190N13143 1925 29 WP MM NOT_NAMED 1925-07-13 00:00:00 NR 16.4728 125.337 main 299 247 __________P___ -1 16.4728 125.337 4 11 282
1925190N13143 1925 29 WP MM NOT_NAMED 1925-07-13 03:00:00 NR 16.5943 124.766 main 247 182 __________P___ -1 16.5943 124.766 4 11 284
1925190N13143 1925 29 WP MM NOT_NAMED 1925-07-13 06:00:00 NR 16.7417 124.180 main 182 117 __________P___ -1 16.7417 124.180 4 12 287
1925190N13143 1925 29 WP MM NOT_NAMED 1925-07-13 09:00:00 NR 16.9274 123.593 main 117 95 __________P___ -1 16.9274 123.593 4 12 289
1925190N13143 1925 29 WP MM NOT_NAMED 1925-07-13 10:00:00 NR 17.0000 123.400 main 95 54 __________O___ -1 17.0000 123.400 4 12 293
1925190N13143 1925 29 WP MM NOT_NAMED 1925-07-13 12:00:00 NR 17.1630 123.015 main 57 11 __________P___ -1 17.1630 123.015 4 12 296
1925190N13143 1925 29 WP MM NOT_NAMED 1925-07-13 15:00:00 NR 17.4454 122.443 main 11 0 __________P___ -1 17.4454 122.443 4 12 299
1925190N13143 1925 29 WP MM NOT_NAMED 1925-07-13 18:00:00 NR 17.7594 121.889 main 0 0 __________P___ -1 17.7594 121.889 4 12 302
1925190N13143 1925 29 WP MM NOT_NAMED 1925-07-13 21:00:00 NR 18.0892 121.365 main 0 0 __________P___ -1 18.0892 121.365 4 12 304
1925190N13143 1925 29 WP MM NOT_NAMED 1925-07-13 22:00:00 NR 18.2000 121.200 main 0 0 __________O___ -1 18.2000 121.200 4 11 303
1925190N13143 1925 29 WP MM NOT_NAMED 1925-07-14 00:00:00 NR 18.3948 120.880 main 0 0 __________P___ -1 18.3948 120.880 4 11 304
1925190N13143 1925 29 WP MM NOT_NAMED 1925-07-14 03:00:00 NR 18.6934 120.431 main 39 39 __________P___ -1 18.6934 120.431 4 10 307
1925190N13143 1925 29 WP MM NOT_NAMED 1925-07-14 06:00:00 NR 19.0133 120.015 main 92 92 __________P___ -1 19.0133 120.015 4 10 312
1925190N13143 1925 29 WP MM NOT_NAMED 1925-07-14 09:00:00 NR 19.3702 119.625 main 153 153 __________P___ -1 19.3702 119.625 4 10 315
1925190N13143 1925 29 WP MM NOT_NAMED 1925-07-14 10:00:00 NR 19.5000 119.500 main 168 168 __________O___ -1 19.5000 119.500 4 11 320
1925190N13143 1925 29 WP MM NOT_NAMED 1925-07-14 12:00:00 NR 19.8006 119.237 main 214 214 __________P___ -1 19.8006 119.237 4 12 323
1925190N13143 1925 29 WP MM NOT_NAMED 1925-07-14 15:00:00 NR 20.2900 118.860 main 258 253 __________P___ -1 20.2900 118.860 4 12 325
1925190N13143 1925 29 WP MM NOT_NAMED 1925-07-14 18:00:00 NR 20.7893 118.512 main 258 250 __________P___ -1 20.7893 118.512 4 12 327
1925190N13143 1925 29 WP MM NOT_NAMED 1925-07-14 21:00:00 NR 21.2577 118.196 main 250 235 __________P___ -1 21.2577 118.196 4 11 328
1925190N13143 1925 29 WP MM NOT_NAMED 1925-07-14 22:00:00 NR 21.4000 118.100 main 235 204 __________O___ -1 21.4000 118.100 4 9 325
1925190N13143 1925 29 WP MM NOT_NAMED 1925-07-15 00:00:00 NR 21.6292 117.920 main 204 166 __________P___ -1 21.6292 117.920 4 8 324
1925190N13143 1925 29 WP MM NOT_NAMED 1925-07-15 03:00:00 NR 21.9288 117.683 main 166 129 __________P___ -1 21.9288 117.683 4 7 324
1925190N13143 1925 29 WP MM NOT_NAMED 1925-07-15 06:00:00 NR 22.2060 117.471 main 129 93 __________P___ -1 22.2060 117.471 4 7 326
1925190N13143 1925 29 WP MM NOT_NAMED 1925-07-15 09:00:00 NR 22.4951 117.268 main 93 79 __________P___ -1 22.4951 117.268 4 7 328
1925190N13143 1925 29 WP MM NOT_NAMED 1925-07-15 10:00:00 NR 22.6000 117.200 main 79 52 __________O___ -1 22.6000 117.200 4 8 326
1925190N13143 1925 29 WP MM NOT_NAMED 1925-07-15 12:00:00 NR 22.8230 117.032 main 52 11 __________P___ -1 22.8230 117.032 4 8 326
1925190N13143 1925 29 WP MM NOT_NAMED 1925-07-15 15:00:00 NR 23.1821 116.779 main 11 0 __________P___ -1 23.1821 116.779 4 9 329
1925190N13143 1925 29 WP MM NOT_NAMED 1925-07-15 18:00:00 NR 23.5820 116.545 main 0 0 __________P___ -1 23.5820 116.545 4 9 335
1925190N13143 1925 29 WP MM NOT_NAMED 1925-07-15 21:00:00 NR 24.0350 116.352 main 0 0 __________P___ -1 24.0350 116.352 4 10 340
1925190N13143 1925 29 WP MM NOT_NAMED 1925-07-15 22:00:00 NR 24.2000 116.300 main 0 0 __________O___ -1 24.2000 116.300 2 11 346
1925190N13143 1925 29 WP MM NOT_NAMED 1925-07-16 00:00:00 NR 24.5594 116.208 main 0 0 __________P___ -1 24.5594 116.208 2 12 350
1925190N13143 1925 29 WP MM NOT_NAMED 1925-07-16 03:00:00 NR 25.1493 116.115 main 0 0 __________P___ -1 25.1493 116.115 2 12 354
1925190N13143 1925 29 WP MM NOT_NAMED 1925-07-16 06:00:00 NR 25.7722 116.074 main 0 0 __________P___ -1 25.7722 116.074 2 13 0
1925190N13143 1925 29 WP MM NOT_NAMED 1925-07-16 09:00:00 NR 26.3968 116.085 main 0 0 __________P___ -1 26.3968 116.085 2 12 1
1925190N13143 1925 29 WP MM NOT_NAMED 1925-07-16 10:00:00 NR 26.6000 116.100 main 0 0 __________O___ -1 26.6000 116.100 2 12 6
1925190N13143 1925 29 WP MM NOT_NAMED 1925-07-16 12:00:00 NR 26.9939 116.147 main 0 0 __________P___ -1 26.9939 116.147 2 12 8
1925190N13143 1925 29 WP MM NOT_NAMED 1925-07-16 15:00:00 NR 27.5579 116.253 main 0 0 __________P___ -1 27.5579 116.253 2 11 11
1925190N13143 1925 29 WP MM NOT_NAMED 1925-07-16 18:00:00 NR 28.0985 116.390 main 0 0 __________P___ -1 28.0985 116.390 2 11 14
1925190N13143 1925 29 WP MM NOT_NAMED 1925-07-16 21:00:00 NR 28.6256 116.546 main 0 0 __________P___ -1 28.6256 116.546 2 11 15
1925190N13143 1925 29 WP MM NOT_NAMED 1925-07-16 22:00:00 NR 28.8000 116.600 main 0 __________O___ -1 28.8000 116.600 2 11 10

デジタル台風データ・検索

IBTrACS Databaseについて

本データベースは、米国NOAAが公開する1842年以降の世界の熱帯低気圧のベストトラックデータアーカイブInternational Best Track Archive for Climate Stewardship (IBTrACS)を、ウェブで閲覧しやすい形式に変換したものです。

最終更新日:2021-10-21